sensor_id;sensor_type;location;lat;lon;timestamp;P1;durP1;ratioP1;P2;durP2;ratioP2
58260;SDS011;44058;52.898;6.502;2022-07-29T00:00:43;1.88;;;1.40;;
58260;SDS011;44058;52.898;6.502;2022-07-29T00:03:12;2.42;;;0.90;;
58260;SDS011;44058;52.898;6.502;2022-07-29T00:05:39;2.22;;;1.10;;
58260;SDS011;44058;52.898;6.502;2022-07-29T00:08:05;2.03;;;1.20;;
58260;SDS011;44058;52.898;6.502;2022-07-29T00:10:32;2.40;;;1.40;;
58260;SDS011;44058;52.898;6.502;2022-07-29T00:12:58;1.45;;;1.10;;
58260;SDS011;44058;52.898;6.502;2022-07-29T00:15:23;2.75;;;1.20;;
58260;SDS011;44058;52.898;6.502;2022-07-29T00:17:49;1.85;;;1.00;;
58260;SDS011;44058;52.898;6.502;2022-07-29T00:20:15;2.38;;;1.20;;
58260;SDS011;44058;52.898;6.502;2022-07-29T00:22:40;2.95;;;1.10;;
58260;SDS011;44058;52.898;6.502;2022-07-29T00:25:06;1.73;;;0.90;;
58260;SDS011;44058;52.898;6.502;2022-07-29T00:27:33;5.95;;;1.52;;
58260;SDS011;44058;52.898;6.502;2022-07-29T00:30:00;2.00;;;1.10;;
58260;SDS011;44058;52.898;6.502;2022-07-29T00:32:26;4.15;;;1.65;;
58260;SDS011;44058;52.898;6.502;2022-07-29T00:34:52;1.65;;;1.20;;
58260;SDS011;44058;52.898;6.502;2022-07-29T00:37:36;2.15;;;1.60;;
58260;SDS011;44058;52.898;6.502;2022-07-29T00:40:02;2.50;;;1.30;;
58260;SDS011;44058;52.898;6.502;2022-07-29T00:42:28;2.50;;;1.30;;
58260;SDS011;44058;52.898;6.502;2022-07-29T00:44:54;2.17;;;1.23;;
58260;SDS011;44058;52.898;6.502;2022-07-29T00:47:20;1.83;;;1.00;;
58260;SDS011;44058;52.898;6.502;2022-07-29T00:49:45;2.28;;;1.35;;
58260;SDS011;44058;52.898;6.502;2022-07-29T00:52:11;2.08;;;1.30;;
58260;SDS011;44058;52.898;6.502;2022-07-29T00:54:38;1.38;;;1.27;;
58260;SDS011;44058;52.898;6.502;2022-07-29T00:57:05;1.80;;;1.27;;
58260;SDS011;44058;52.898;6.502;2022-07-29T00:59:32;3.67;;;1.57;;
58260;SDS011;44058;52.898;6.502;2022-07-29T01:01:58;2.55;;;1.50;;
58260;SDS011;44058;52.898;6.502;2022-07-29T01:04:24;2.83;;;1.33;;
58260;SDS011;44058;52.898;6.502;2022-07-29T01:06:50;1.48;;;1.30;;
58260;SDS011;44058;52.898;6.502;2022-07-29T01:09:17;2.03;;;1.17;;
58260;SDS011;44058;52.898;6.502;2022-07-29T01:11:43;2.05;;;1.52;;
58260;SDS011;44058;52.898;6.502;2022-07-29T01:16:43;2.58;;;1.60;;
58260;SDS011;44058;52.898;6.502;2022-07-29T01:19:21;2.35;;;1.63;;
58260;SDS011;44058;52.898;6.502;2022-07-29T01:21:58;2.45;;;1.50;;
58260;SDS011;44058;52.898;6.502;2022-07-29T01:30:10;2.47;;;1.58;;
58260;SDS011;44058;52.898;6.502;2022-07-29T01:32:37;1.52;;;1.30;;
58260;SDS011;44058;52.898;6.502;2022-07-29T01:35:10;3.42;;;1.80;;
58260;SDS011;44058;52.898;6.502;2022-07-29T01:40:42;3.08;;;1.45;;
58260;SDS011;44058;52.898;6.502;2022-07-29T01:43:16;2.35;;;1.30;;
58260;SDS011;44058;52.898;6.502;2022-07-29T01:45:46;3.92;;;1.40;;
58260;SDS011;44058;52.898;6.502;2022-07-29T01:48:23;4.03;;;1.60;;
58260;SDS011;44058;52.898;6.502;2022-07-29T01:51:05;1.83;;;1.17;;
58260;SDS011;44058;52.898;6.502;2022-07-29T01:53:38;2.65;;;1.20;;
58260;SDS011;44058;52.898;6.502;2022-07-29T01:56:11;2.30;;;1.38;;
58260;SDS011;44058;52.898;6.502;2022-07-29T01:58:38;4.07;;;1.30;;
58260;SDS011;44058;52.898;6.502;2022-07-29T02:01:08;4.07;;;1.95;;
58260;SDS011;44058;52.898;6.502;2022-07-29T02:03:36;3.38;;;1.38;;
58260;SDS011;44058;52.898;6.502;2022-07-29T02:06:04;1.60;;;1.20;;
58260;SDS011;44058;52.898;6.502;2022-07-29T02:08:32;2.35;;;1.48;;
58260;SDS011;44058;52.898;6.502;2022-07-29T02:11:01;3.83;;;1.48;;
58260;SDS011;44058;52.898;6.502;2022-07-29T02:13:29;1.80;;;1.40;;
58260;SDS011;44058;52.898;6.502;2022-07-29T02:15:59;2.30;;;1.30;;
58260;SDS011;44058;52.898;6.502;2022-07-29T02:18:27;2.47;;;1.20;;
58260;SDS011;44058;52.898;6.502;2022-07-29T02:20:55;3.30;;;1.45;;
58260;SDS011;44058;52.898;6.502;2022-07-29T02:23:23;4.97;;;1.75;;
58260;SDS011;44058;52.898;6.502;2022-07-29T02:25:54;2.72;;;1.35;;
58260;SDS011;44058;52.898;6.502;2022-07-29T02:28:22;2.95;;;1.40;;
58260;SDS011;44058;52.898;6.502;2022-07-29T02:30:52;3.35;;;1.20;;
58260;SDS011;44058;52.898;6.502;2022-07-29T02:33:20;2.50;;;1.08;;
58260;SDS011;44058;52.898;6.502;2022-07-29T02:35:48;1.77;;;1.17;;
58260;SDS011;44058;52.898;6.502;2022-07-29T02:38:16;2.15;;;1.30;;
58260;SDS011;44058;52.898;6.502;2022-07-29T02:41:04;5.25;;;1.48;;
58260;SDS011;44058;52.898;6.502;2022-07-29T02:43:34;1.77;;;1.20;;
58260;SDS011;44058;52.898;6.502;2022-07-29T02:46:00;2.47;;;1.23;;
58260;SDS011;44058;52.898;6.502;2022-07-29T02:48:37;2.30;;;1.00;;
58260;SDS011;44058;52.898;6.502;2022-07-29T02:51:13;3.00;;;1.27;;
58260;SDS011;44058;52.898;6.502;2022-07-29T02:53:49;3.30;;;1.90;;
58260;SDS011;44058;52.898;6.502;2022-07-29T02:56:18;1.90;;;1.13;;
58260;SDS011;44058;52.898;6.502;2022-07-29T02:58:53;3.67;;;1.38;;
58260;SDS011;44058;52.898;6.502;2022-07-29T03:01:22;3.38;;;1.45;;
58260;SDS011;44058;52.898;6.502;2022-07-29T03:03:49;4.18;;;1.60;;
58260;SDS011;44058;52.898;6.502;2022-07-29T03:06:18;2.53;;;1.17;;
58260;SDS011;44058;52.898;6.502;2022-07-29T03:08:45;2.95;;;1.52;;
58260;SDS011;44058;52.898;6.502;2022-07-29T03:11:12;1.65;;;1.10;;
58260;SDS011;44058;52.898;6.502;2022-07-29T03:13:38;1.92;;;1.23;;
58260;SDS011;44058;52.898;6.502;2022-07-29T03:16:05;4.68;;;1.30;;
58260;SDS011;44058;52.898;6.502;2022-07-29T03:18:31;4.80;;;1.70;;
58260;SDS011;44058;52.898;6.502;2022-07-29T03:20:58;4.13;;;1.60;;
58260;SDS011;44058;52.898;6.502;2022-07-29T03:23:23;4.07;;;1.30;;
58260;SDS011;44058;52.898;6.502;2022-07-29T03:25:51;2.05;;;1.20;;
58260;SDS011;44058;52.898;6.502;2022-07-29T03:28:17;2.00;;;1.30;;
58260;SDS011;44058;52.898;6.502;2022-07-29T03:30:42;4.07;;;1.42;;
58260;SDS011;44058;52.898;6.502;2022-07-29T03:33:08;2.80;;;1.35;;
58260;SDS011;44058;52.898;6.502;2022-07-29T03:35:34;2.58;;;1.17;;
58260;SDS011;44058;52.898;6.502;2022-07-29T03:38:00;4.25;;;1.40;;
58260;SDS011;44058;52.898;6.502;2022-07-29T03:40:33;4.30;;;1.58;;
58260;SDS011;44058;52.898;6.502;2022-07-29T03:43:03;2.97;;;1.40;;
58260;SDS011;44058;52.898;6.502;2022-07-29T03:45:31;2.55;;;1.48;;
58260;SDS011;44058;52.898;6.502;2022-07-29T03:47:59;2.70;;;1.27;;
58260;SDS011;44058;52.898;6.502;2022-07-29T03:50:29;1.80;;;1.30;;
58260;SDS011;44058;52.898;6.502;2022-07-29T03:52:56;2.00;;;1.30;;
58260;SDS011;44058;52.898;6.502;2022-07-29T03:55:22;2.92;;;1.30;;
58260;SDS011;44058;52.898;6.502;2022-07-29T03:57:49;2.53;;;1.40;;
58260;SDS011;44058;52.898;6.502;2022-07-29T04:00:15;2.20;;;1.40;;
58260;SDS011;44058;52.898;6.502;2022-07-29T04:02:41;1.90;;;1.20;;
58260;SDS011;44058;52.898;6.502;2022-07-29T04:05:13;2.83;;;1.30;;
58260;SDS011;44058;52.898;6.502;2022-07-29T04:07:40;2.67;;;1.30;;
58260;SDS011;44058;52.898;6.502;2022-07-29T04:10:08;2.20;;;1.20;;
58260;SDS011;44058;52.898;6.502;2022-07-29T04:12:34;1.33;;;1.20;;
58260;SDS011;44058;52.898;6.502;2022-07-29T04:15:00;2.92;;;1.20;;
58260;SDS011;44058;52.898;6.502;2022-07-29T04:17:26;3.28;;;1.30;;
58260;SDS011;44058;52.898;6.502;2022-07-29T04:19:52;3.85;;;1.33;;
58260;SDS011;44058;52.898;6.502;2022-07-29T04:22:17;2.95;;;1.50;;
58260;SDS011;44058;52.898;6.502;2022-07-29T04:24:43;2.60;;;1.25;;
58260;SDS011;44058;52.898;6.502;2022-07-29T04:27:09;5.13;;;1.70;;
58260;SDS011;44058;52.898;6.502;2022-07-29T04:29:34;2.80;;;1.50;;
58260;SDS011;44058;52.898;6.502;2022-07-29T04:32:00;4.90;;;1.45;;
58260;SDS011;44058;52.898;6.502;2022-07-29T04:34:26;3.90;;;1.75;;
58260;SDS011;44058;52.898;6.502;2022-07-29T04:36:52;3.75;;;1.45;;
58260;SDS011;44058;52.898;6.502;2022-07-29T04:39:17;2.78;;;1.35;;
58260;SDS011;44058;52.898;6.502;2022-07-29T04:41:44;3.97;;;1.73;;
58260;SDS011;44058;52.898;6.502;2022-07-29T04:44:10;2.20;;;1.50;;
58260;SDS011;44058;52.898;6.502;2022-07-29T04:46:36;3.10;;;1.52;;
58260;SDS011;44058;52.898;6.502;2022-07-29T04:49:02;2.58;;;1.70;;
58260;SDS011;44058;52.898;6.502;2022-07-29T04:51:28;2.45;;;1.40;;
58260;SDS011;44058;52.898;6.502;2022-07-29T04:53:54;2.15;;;1.10;;
58260;SDS011;44058;52.898;6.502;2022-07-29T04:56:19;3.75;;;1.40;;
58260;SDS011;44058;52.898;6.502;2022-07-29T04:58:45;2.60;;;1.27;;
58260;SDS011;44058;52.898;6.502;2022-07-29T05:01:11;2.15;;;1.50;;
58260;SDS011;44058;52.898;6.502;2022-07-29T05:03:37;6.28;;;1.80;;
58260;SDS011;44058;52.898;6.502;2022-07-29T05:06:02;3.72;;;1.45;;
58260;SDS011;44058;52.898;6.502;2022-07-29T05:08:28;3.55;;;1.45;;
58260;SDS011;44058;52.898;6.502;2022-07-29T05:10:54;4.45;;;1.60;;
58260;SDS011;44058;52.898;6.502;2022-07-29T05:13:19;1.80;;;1.40;;
58260;SDS011;44058;52.898;6.502;2022-07-29T05:15:45;2.58;;;1.35;;
58260;SDS011;44058;52.898;6.502;2022-07-29T05:18:11;2.80;;;1.63;;
58260;SDS011;44058;52.898;6.502;2022-07-29T05:20:36;3.55;;;1.40;;
58260;SDS011;44058;52.898;6.502;2022-07-29T05:23:02;3.17;;;1.80;;
58260;SDS011;44058;52.898;6.502;2022-07-29T05:25:28;1.40;;;1.13;;
58260;SDS011;44058;52.898;6.502;2022-07-29T05:27:54;2.47;;;1.40;;
58260;SDS011;44058;52.898;6.502;2022-07-29T05:30:21;3.25;;;1.50;;
58260;SDS011;44058;52.898;6.502;2022-07-29T05:32:47;3.80;;;1.45;;
58260;SDS011;44058;52.898;6.502;2022-07-29T05:35:13;3.15;;;1.50;;
58260;SDS011;44058;52.898;6.502;2022-07-29T05:37:39;2.72;;;1.65;;
58260;SDS011;44058;52.898;6.502;2022-07-29T05:40:05;3.85;;;1.90;;
58260;SDS011;44058;52.898;6.502;2022-07-29T05:42:32;4.75;;;1.70;;
58260;SDS011;44058;52.898;6.502;2022-07-29T05:44:59;3.85;;;1.70;;
58260;SDS011;44058;52.898;6.502;2022-07-29T05:47:25;3.30;;;1.80;;
58260;SDS011;44058;52.898;6.502;2022-07-29T05:49:50;3.70;;;1.58;;
58260;SDS011;44058;52.898;6.502;2022-07-29T05:52:16;1.92;;;1.50;;
58260;SDS011;44058;52.898;6.502;2022-07-29T05:54:42;4.22;;;1.90;;
58260;SDS011;44058;52.898;6.502;2022-07-29T05:57:08;3.25;;;1.65;;
58260;SDS011;44058;52.898;6.502;2022-07-29T05:59:39;4.20;;;1.70;;
58260;SDS011;44058;52.898;6.502;2022-07-29T06:02:05;3.65;;;1.40;;
58260;SDS011;44058;52.898;6.502;2022-07-29T06:04:31;2.78;;;1.63;;
58260;SDS011;44058;52.898;6.502;2022-07-29T06:06:57;1.98;;;1.40;;
58260;SDS011;44058;52.898;6.502;2022-07-29T06:09:25;3.10;;;1.50;;
58260;SDS011;44058;52.898;6.502;2022-07-29T06:11:51;3.35;;;1.50;;
58260;SDS011;44058;52.898;6.502;2022-07-29T06:14:17;5.47;;;1.90;;
58260;SDS011;44058;52.898;6.502;2022-07-29T06:16:43;3.95;;;2.08;;
58260;SDS011;44058;52.898;6.502;2022-07-29T06:19:09;2.83;;;1.63;;
58260;SDS011;44058;52.898;6.502;2022-07-29T06:21:35;5.47;;;1.63;;
58260;SDS011;44058;52.898;6.502;2022-07-29T06:24:00;2.83;;;1.65;;
58260;SDS011;44058;52.898;6.502;2022-07-29T06:26:26;3.25;;;1.45;;
58260;SDS011;44058;52.898;6.502;2022-07-29T06:28:52;4.60;;;1.83;;
58260;SDS011;44058;52.898;6.502;2022-07-29T06:31:18;3.25;;;1.70;;
58260;SDS011;44058;52.898;6.502;2022-07-29T06:33:44;4.00;;;1.92;;
58260;SDS011;44058;52.898;6.502;2022-07-29T06:36:10;3.20;;;1.50;;
58260;SDS011;44058;52.898;6.502;2022-07-29T06:38:35;2.80;;;1.98;;
58260;SDS011;44058;52.898;6.502;2022-07-29T06:41:03;4.05;;;1.90;;
58260;SDS011;44058;52.898;6.502;2022-07-29T06:43:32;2.22;;;1.52;;
58260;SDS011;44058;52.898;6.502;2022-07-29T06:46:03;4.50;;;1.58;;
58260;SDS011;44058;52.898;6.502;2022-07-29T06:48:34;2.92;;;1.45;;
58260;SDS011;44058;52.898;6.502;2022-07-29T06:51:01;3.72;;;1.90;;
58260;SDS011;44058;52.898;6.502;2022-07-29T06:53:27;4.18;;;1.65;;
58260;SDS011;44058;52.898;6.502;2022-07-29T06:55:53;3.20;;;1.70;;
58260;SDS011;44058;52.898;6.502;2022-07-29T06:58:19;4.25;;;1.75;;
58260;SDS011;44058;52.898;6.502;2022-07-29T07:00:48;5.13;;;1.40;;
58260;SDS011;44058;52.898;6.502;2022-07-29T07:03:15;3.75;;;1.70;;
58260;SDS011;44058;52.898;6.502;2022-07-29T07:05:42;2.35;;;1.60;;
58260;SDS011;44058;52.898;6.502;2022-07-29T07:08:08;4.53;;;1.80;;
58260;SDS011;44058;52.898;6.502;2022-07-29T07:10:34;2.28;;;1.73;;
58260;SDS011;44058;52.898;6.502;2022-07-29T07:13:00;3.17;;;1.90;;
58260;SDS011;44058;52.898;6.502;2022-07-29T07:15:26;4.90;;;1.85;;
58260;SDS011;44058;52.898;6.502;2022-07-29T07:17:53;3.97;;;1.80;;
58260;SDS011;44058;52.898;6.502;2022-07-29T07:20:18;2.42;;;1.80;;
58260;SDS011;44058;52.898;6.502;2022-07-29T07:22:44;3.85;;;1.65;;
58260;SDS011;44058;52.898;6.502;2022-07-29T07:25:12;3.78;;;1.60;;
58260;SDS011;44058;52.898;6.502;2022-07-29T07:27:38;5.63;;;2.10;;
58260;SDS011;44058;52.898;6.502;2022-07-29T07:30:04;4.82;;;1.88;;
58260;SDS011;44058;52.898;6.502;2022-07-29T07:32:34;4.35;;;2.03;;
58260;SDS011;44058;52.898;6.502;2022-07-29T07:35:00;5.03;;;1.92;;
58260;SDS011;44058;52.898;6.502;2022-07-29T07:37:26;3.47;;;1.70;;
58260;SDS011;44058;52.898;6.502;2022-07-29T07:39:52;2.28;;;1.63;;
58260;SDS011;44058;52.898;6.502;2022-07-29T07:42:19;2.35;;;1.70;;
58260;SDS011;44058;52.898;6.502;2022-07-29T07:44:45;3.78;;;2.13;;
58260;SDS011;44058;52.898;6.502;2022-07-29T07:47:11;4.28;;;1.58;;
58260;SDS011;44058;52.898;6.502;2022-07-29T07:49:37;3.80;;;1.75;;
58260;SDS011;44058;52.898;6.502;2022-07-29T07:52:03;4.80;;;1.98;;
58260;SDS011;44058;52.898;6.502;2022-07-29T07:54:29;6.55;;;2.13;;
58260;SDS011;44058;52.898;6.502;2022-07-29T07:56:56;3.67;;;1.90;;
58260;SDS011;44058;52.898;6.502;2022-07-29T07:59:22;3.67;;;1.70;;
58260;SDS011;44058;52.898;6.502;2022-07-29T08:01:48;3.03;;;1.73;;
58260;SDS011;44058;52.898;6.502;2022-07-29T08:04:14;3.00;;;1.77;;
58260;SDS011;44058;52.898;6.502;2022-07-29T08:06:40;6.22;;;1.90;;
58260;SDS011;44058;52.898;6.502;2022-07-29T08:09:06;3.55;;;2.20;;
58260;SDS011;44058;52.898;6.502;2022-07-29T08:11:32;2.88;;;1.63;;
58260;SDS011;44058;52.898;6.502;2022-07-29T08:13:57;2.13;;;1.80;;
58260;SDS011;44058;52.898;6.502;2022-07-29T08:16:23;4.10;;;1.80;;
58260;SDS011;44058;52.898;6.502;2022-07-29T08:18:50;2.72;;;1.90;;
58260;SDS011;44058;52.898;6.502;2022-07-29T08:21:16;3.53;;;2.00;;
58260;SDS011;44058;52.898;6.502;2022-07-29T08:23:44;7.88;;;2.25;;
58260;SDS011;44058;52.898;6.502;2022-07-29T08:26:40;4.35;;;1.92;;
58260;SDS011;44058;52.898;6.502;2022-07-29T08:29:07;4.43;;;1.90;;
58260;SDS011;44058;52.898;6.502;2022-07-29T08:31:32;3.28;;;2.10;;
58260;SDS011;44058;52.898;6.502;2022-07-29T08:33:58;2.85;;;1.77;;
58260;SDS011;44058;52.898;6.502;2022-07-29T08:36:25;2.75;;;1.92;;
58260;SDS011;44058;52.898;6.502;2022-07-29T08:38:51;3.08;;;1.70;;
58260;SDS011;44058;52.898;6.502;2022-07-29T08:41:20;2.75;;;1.80;;
58260;SDS011;44058;52.898;6.502;2022-07-29T08:43:47;5.18;;;1.80;;
58260;SDS011;44058;52.898;6.502;2022-07-29T08:46:14;4.53;;;1.98;;
58260;SDS011;44058;52.898;6.502;2022-07-29T08:48:42;5.85;;;1.80;;
58260;SDS011;44058;52.898;6.502;2022-07-29T08:51:08;4.18;;;2.03;;
58260;SDS011;44058;52.898;6.502;2022-07-29T08:53:40;3.85;;;2.30;;
58260;SDS011;44058;52.898;6.502;2022-07-29T08:56:08;5.28;;;2.40;;
58260;SDS011;44058;52.898;6.502;2022-07-29T08:58:37;5.07;;;2.30;;
58260;SDS011;44058;52.898;6.502;2022-07-29T09:01:04;4.40;;;2.22;;
58260;SDS011;44058;52.898;6.502;2022-07-29T09:03:30;5.10;;;2.22;;
58260;SDS011;44058;52.898;6.502;2022-07-29T09:06:00;4.38;;;2.30;;
58260;SDS011;44058;52.898;6.502;2022-07-29T09:08:32;5.05;;;2.85;;
58260;SDS011;44058;52.898;6.502;2022-07-29T09:10:58;4.28;;;2.15;;
58260;SDS011;44058;52.898;6.502;2022-07-29T09:13:26;6.38;;;2.60;;
58260;SDS011;44058;52.898;6.502;2022-07-29T09:15:52;5.13;;;2.13;;
58260;SDS011;44058;52.898;6.502;2022-07-29T09:18:35;4.70;;;2.38;;
58260;SDS011;44058;52.898;6.502;2022-07-29T09:21:08;4.18;;;2.42;;
58260;SDS011;44058;52.898;6.502;2022-07-29T09:24:07;4.80;;;2.30;;
58260;SDS011;44058;52.898;6.502;2022-07-29T09:26:35;6.18;;;2.20;;
58260;SDS011;44058;52.898;6.502;2022-07-29T09:29:10;4.65;;;2.25;;
58260;SDS011;44058;52.898;6.502;2022-07-29T09:31:41;4.45;;;2.25;;
58260;SDS011;44058;52.898;6.502;2022-07-29T09:34:09;4.05;;;2.25;;
58260;SDS011;44058;52.898;6.502;2022-07-29T09:36:42;3.08;;;2.00;;
58260;SDS011;44058;52.898;6.502;2022-07-29T09:39:09;3.50;;;2.05;;
58260;SDS011;44058;52.898;6.502;2022-07-29T09:41:45;4.43;;;2.15;;
58260;SDS011;44058;52.898;6.502;2022-07-29T09:44:15;3.88;;;2.03;;
58260;SDS011;44058;52.898;6.502;2022-07-29T09:46:58;5.30;;;3.28;;
58260;SDS011;44058;52.898;6.502;2022-07-29T09:49:31;4.00;;;2.35;;
58260;SDS011;44058;52.898;6.502;2022-07-29T09:52:06;8.05;;;2.50;;
58260;SDS011;44058;52.898;6.502;2022-07-29T09:54:33;6.57;;;2.60;;
58260;SDS011;44058;52.898;6.502;2022-07-29T09:57:05;4.50;;;2.30;;
58260;SDS011;44058;52.898;6.502;2022-07-29T09:59:33;5.40;;;2.30;;
58260;SDS011;44058;52.898;6.502;2022-07-29T10:01:59;5.03;;;2.55;;
58260;SDS011;44058;52.898;6.502;2022-07-29T10:04:38;3.33;;;2.00;;
58260;SDS011;44058;52.898;6.502;2022-07-29T10:07:07;4.90;;;2.55;;
58260;SDS011;44058;52.898;6.502;2022-07-29T10:09:34;6.75;;;2.05;;
58260;SDS011;44058;52.898;6.502;2022-07-29T10:12:07;3.72;;;2.13;;
58260;SDS011;44058;52.898;6.502;2022-07-29T10:14:40;4.82;;;2.55;;
58260;SDS011;44058;52.898;6.502;2022-07-29T10:17:07;3.13;;;1.90;;
58260;SDS011;44058;52.898;6.502;2022-07-29T10:19:35;4.77;;;2.40;;
58260;SDS011;44058;52.898;6.502;2022-07-29T10:22:03;3.53;;;2.78;;
58260;SDS011;44058;52.898;6.502;2022-07-29T10:24:30;4.15;;;2.92;;
58260;SDS011;44058;52.898;6.502;2022-07-29T10:26:58;4.80;;;2.63;;
58260;SDS011;44058;52.898;6.502;2022-07-29T10:29:26;3.95;;;2.55;;
58260;SDS011;44058;52.898;6.502;2022-07-29T10:34:36;3.53;;;2.83;;
58260;SDS011;44058;52.898;6.502;2022-07-29T10:40:33;4.78;;;2.67;;
58260;SDS011;44058;52.898;6.502;2022-07-29T10:43:29;6.97;;;2.83;;
58260;SDS011;44058;52.898;6.502;2022-07-29T10:46:01;4.03;;;2.53;;
58260;SDS011;44058;52.898;6.502;2022-07-29T10:48:28;5.28;;;2.70;;
58260;SDS011;44058;52.898;6.502;2022-07-29T10:50:59;4.75;;;2.65;;
58260;SDS011;44058;52.898;6.502;2022-07-29T10:56:26;5.43;;;2.65;;
58260;SDS011;44058;52.898;6.502;2022-07-29T11:01:44;4.68;;;2.70;;
58260;SDS011;44058;52.898;6.502;2022-07-29T11:04:11;7.07;;;2.40;;
58260;SDS011;44058;52.898;6.502;2022-07-29T11:09:32;4.80;;;2.75;;
58260;SDS011;44058;52.898;6.502;2022-07-29T11:11:58;6.45;;;2.88;;
58260;SDS011;44058;52.898;6.502;2022-07-29T11:17:18;3.05;;;2.17;;
58260;SDS011;44058;52.898;6.502;2022-07-29T11:19:43;6.07;;;2.90;;
58260;SDS011;44058;52.898;6.502;2022-07-29T11:22:10;4.30;;;2.20;;
58260;SDS011;44058;52.898;6.502;2022-07-29T11:24:36;6.15;;;2.70;;
58260;SDS011;44058;52.898;6.502;2022-07-29T11:29:59;3.00;;;2.30;;
58260;SDS011;44058;52.898;6.502;2022-07-29T11:32:35;5.18;;;2.35;;
58260;SDS011;44058;52.898;6.502;2022-07-29T11:35:13;6.18;;;2.70;;
58260;SDS011;44058;52.898;6.502;2022-07-29T11:41:18;4.78;;;2.60;;
58260;SDS011;44058;52.898;6.502;2022-07-29T11:43:56;6.15;;;2.33;;
58260;SDS011;44058;52.898;6.502;2022-07-29T11:49:24;4.90;;;2.13;;
58260;SDS011;44058;52.898;6.502;2022-07-29T11:51:52;4.57;;;2.38;;
58260;SDS011;44058;52.898;6.502;2022-07-29T11:54:26;7.07;;;2.55;;
58260;SDS011;44058;52.898;6.502;2022-07-29T11:56:59;3.70;;;2.30;;
58260;SDS011;44058;52.898;6.502;2022-07-29T11:59:25;5.05;;;1.90;;
58260;SDS011;44058;52.898;6.502;2022-07-29T12:01:55;5.65;;;2.58;;
58260;SDS011;44058;52.898;6.502;2022-07-29T12:04:22;3.85;;;2.40;;
58260;SDS011;44058;52.898;6.502;2022-07-29T12:06:52;6.05;;;3.05;;
58260;SDS011;44058;52.898;6.502;2022-07-29T12:09:19;3.13;;;1.77;;
58260;SDS011;44058;52.898;6.502;2022-07-29T12:11:46;4.40;;;2.33;;
58260;SDS011;44058;52.898;6.502;2022-07-29T12:14:31;8.38;;;2.65;;
58260;SDS011;44058;52.898;6.502;2022-07-29T12:16:59;3.90;;;2.40;;
58260;SDS011;44058;52.898;6.502;2022-07-29T12:19:25;5.35;;;2.38;;
58260;SDS011;44058;52.898;6.502;2022-07-29T12:21:52;3.20;;;2.15;;
58260;SDS011;44058;52.898;6.502;2022-07-29T12:24:19;4.72;;;2.38;;
58260;SDS011;44058;52.898;6.502;2022-07-29T12:29:26;5.85;;;2.30;;
58260;SDS011;44058;52.898;6.502;2022-07-29T12:31:53;2.55;;;2.20;;
58260;SDS011;44058;52.898;6.502;2022-07-29T12:34:20;4.60;;;1.95;;
58260;SDS011;44058;52.898;6.502;2022-07-29T12:36:48;3.47;;;1.80;;
58260;SDS011;44058;52.898;6.502;2022-07-29T12:39:17;4.95;;;1.80;;
58260;SDS011;44058;52.898;6.502;2022-07-29T12:41:44;6.18;;;2.08;;
58260;SDS011;44058;52.898;6.502;2022-07-29T12:44:10;5.70;;;1.95;;
58260;SDS011;44058;52.898;6.502;2022-07-29T12:46:36;6.40;;;2.15;;
58260;SDS011;44058;52.898;6.502;2022-07-29T12:49:02;3.63;;;1.90;;
58260;SDS011;44058;52.898;6.502;2022-07-29T12:51:30;4.55;;;2.10;;
58260;SDS011;44058;52.898;6.502;2022-07-29T12:54:11;3.00;;;1.75;;
58260;SDS011;44058;52.898;6.502;2022-07-29T12:56:39;4.13;;;1.70;;
58260;SDS011;44058;52.898;6.502;2022-07-29T13:01:46;3.67;;;1.65;;
58260;SDS011;44058;52.898;6.502;2022-07-29T13:04:29;3.50;;;1.80;;
58260;SDS011;44058;52.898;6.502;2022-07-29T13:07:03;4.20;;;2.20;;
58260;SDS011;44058;52.898;6.502;2022-07-29T13:09:36;3.40;;;2.08;;
58260;SDS011;44058;52.898;6.502;2022-07-29T13:12:10;4.30;;;1.95;;
58260;SDS011;44058;52.898;6.502;2022-07-29T13:14:38;5.38;;;2.13;;
58260;SDS011;44058;52.898;6.502;2022-07-29T13:17:12;4.45;;;2.20;;
58260;SDS011;44058;52.898;6.502;2022-07-29T13:22:10;4.00;;;2.20;;
58260;SDS011;44058;52.898;6.502;2022-07-29T13:27:27;4.90;;;2.78;;
58260;SDS011;44058;52.898;6.502;2022-07-29T13:29:55;6.03;;;2.30;;
58260;SDS011;44058;52.898;6.502;2022-07-29T13:32:23;2.88;;;1.80;;
58260;SDS011;44058;52.898;6.502;2022-07-29T13:34:50;5.00;;;2.40;;
58260;SDS011;44058;52.898;6.502;2022-07-29T13:37:16;6.90;;;2.30;;
58260;SDS011;44058;52.898;6.502;2022-07-29T13:39:43;3.70;;;2.00;;
58260;SDS011;44058;52.898;6.502;2022-07-29T13:42:09;3.70;;;2.03;;
58260;SDS011;44058;52.898;6.502;2022-07-29T13:44:35;4.03;;;2.25;;
58260;SDS011;44058;52.898;6.502;2022-07-29T13:47:01;4.55;;;2.15;;
58260;SDS011;44058;52.898;6.502;2022-07-29T13:49:27;4.15;;;2.50;;
58260;SDS011;44058;52.898;6.502;2022-07-29T13:51:53;4.55;;;2.25;;
58260;SDS011;44058;52.898;6.502;2022-07-29T13:54:19;2.25;;;1.90;;
58260;SDS011;44058;52.898;6.502;2022-07-29T13:56:45;3.40;;;2.03;;
58260;SDS011;44058;52.898;6.502;2022-07-29T13:59:11;6.03;;;1.88;;
58260;SDS011;44058;52.898;6.502;2022-07-29T14:01:37;4.43;;;1.90;;
58260;SDS011;44058;52.898;6.502;2022-07-29T14:04:06;4.38;;;1.90;;
58260;SDS011;44058;52.898;6.502;2022-07-29T14:06:32;6.05;;;2.00;;
58260;SDS011;44058;52.898;6.502;2022-07-29T14:08:58;4.85;;;1.70;;
58260;SDS011;44058;52.898;6.502;2022-07-29T14:11:24;4.47;;;2.00;;
58260;SDS011;44058;52.898;6.502;2022-07-29T14:13:50;5.30;;;1.77;;
58260;SDS011;44058;52.898;6.502;2022-07-29T14:16:15;4.85;;;1.92;;
58260;SDS011;44058;52.898;6.502;2022-07-29T14:18:41;7.20;;;2.10;;
58260;SDS011;44058;52.898;6.502;2022-07-29T14:21:10;2.80;;;1.92;;
58260;SDS011;44058;52.898;6.502;2022-07-29T14:23:36;4.00;;;1.85;;
58260;SDS011;44058;52.898;6.502;2022-07-29T14:26:02;4.20;;;1.80;;
58260;SDS011;44058;52.898;6.502;2022-07-29T14:28:27;4.03;;;1.95;;
58260;SDS011;44058;52.898;6.502;2022-07-29T14:30:53;7.03;;;2.42;;
58260;SDS011;44058;52.898;6.502;2022-07-29T14:33:19;4.45;;;2.15;;
58260;SDS011;44058;52.898;6.502;2022-07-29T14:35:44;4.75;;;2.13;;
58260;SDS011;44058;52.898;6.502;2022-07-29T14:38:10;4.80;;;1.75;;
58260;SDS011;44058;52.898;6.502;2022-07-29T14:40:36;4.15;;;1.75;;
58260;SDS011;44058;52.898;6.502;2022-07-29T14:43:03;3.03;;;1.70;;
58260;SDS011;44058;52.898;6.502;2022-07-29T14:45:28;5.63;;;1.98;;
58260;SDS011;44058;52.898;6.502;2022-07-29T14:47:54;4.90;;;1.88;;
58260;SDS011;44058;52.898;6.502;2022-07-29T14:50:20;3.38;;;1.75;;
58260;SDS011;44058;52.898;6.502;2022-07-29T14:52:49;4.95;;;1.98;;
58260;SDS011;44058;52.898;6.502;2022-07-29T14:55:15;7.03;;;2.30;;
58260;SDS011;44058;52.898;6.502;2022-07-29T14:57:40;6.93;;;2.30;;
58260;SDS011;44058;52.898;6.502;2022-07-29T15:00:06;7.43;;;2.10;;
58260;SDS011;44058;52.898;6.502;2022-07-29T15:02:33;4.82;;;2.22;;
58260;SDS011;44058;52.898;6.502;2022-07-29T15:04:59;6.07;;;1.73;;
58260;SDS011;44058;52.898;6.502;2022-07-29T15:07:25;3.42;;;1.80;;
58260;SDS011;44058;52.898;6.502;2022-07-29T15:09:51;4.18;;;1.60;;
58260;SDS011;44058;52.898;6.502;2022-07-29T15:12:17;3.50;;;1.98;;
58260;SDS011;44058;52.898;6.502;2022-07-29T15:14:43;4.28;;;1.75;;
58260;SDS011;44058;52.898;6.502;2022-07-29T15:17:08;5.63;;;1.73;;
58260;SDS011;44058;52.898;6.502;2022-07-29T15:19:34;4.68;;;1.70;;
58260;SDS011;44058;52.898;6.502;2022-07-29T15:22:00;4.30;;;1.83;;
58260;SDS011;44058;52.898;6.502;2022-07-29T15:24:25;4.18;;;1.92;;
58260;SDS011;44058;52.898;6.502;2022-07-29T15:26:52;4.85;;;1.80;;
58260;SDS011;44058;52.898;6.502;2022-07-29T15:29:17;5.88;;;2.05;;
58260;SDS011;44058;52.898;6.502;2022-07-29T15:31:43;5.28;;;1.85;;
58260;SDS011;44058;52.898;6.502;2022-07-29T15:34:09;3.28;;;1.92;;
58260;SDS011;44058;52.898;6.502;2022-07-29T15:36:35;4.15;;;1.63;;
58260;SDS011;44058;52.898;6.502;2022-07-29T15:39:00;4.50;;;2.00;;
58260;SDS011;44058;52.898;6.502;2022-07-29T15:41:26;3.80;;;1.60;;